Time;durP1;ratioP1;P1;durP2;ratioP2;P2;SDS_P1;SDS_P2;PMS_P1;PMS_P2;Temp;Humidity;BMP_temperature;BMP_pressure;BME280_temperature;BME280_humidity;BME280_pressure;Samples;Min_cycle;Max_cycle;Signal;HPM_P1;HPM_P2
2022/05/14 00:01:45;;;;;;;26.40;4.35;;;11.40;99.90;;;;;;5030786;28;20524;-62
2022/05/14 00:04:13;;;;;;;22.02;4.32;;;11.40;99.90;;;;;;5030057;28;20045;-61
2022/05/14 00:06:40;;;;;;;27.58;5.68;;;11.40;99.90;;;;;;5034524;28;20049;-61
2022/05/14 00:09:08;;;;;;;22.02;4.70;;;11.50;99.90;;;;;;5034227;28;20048;-61
2022/05/14 00:14:23;;;;;;;16.83;4.20;;;11.40;99.90;;;;;;5035491;28;20497;-62
2022/05/14 00:16:50;;;;;;;24.25;5.15;;;11.40;99.90;;;;;;5030216;28;20058;-61
2022/05/14 00:19:19;;;;;;;35.08;5.65;;;11.50;99.90;;;;;;5028316;28;20045;-61
2022/05/14 00:21:49;;;;;;;19.58;3.97;;;11.50;99.90;;;;;;5035322;28;20056;-62
2022/05/14 00:24:17;;;;;;;30.30;4.93;;;11.40;99.90;;;;;;5033212;28;20049;-61
2022/05/14 00:26:45;;;;;;;31.50;4.28;;;11.50;99.90;;;;;;5035094;28;20420;-60
2022/05/14 00:29:13;;;;;;;24.75;4.15;;;11.40;99.90;;;;;;5033824;28;20056;-60
2022/05/14 00:31:40;;;;;;;30.10;4.30;;;11.40;99.90;;;;;;5031759;28;20050;-63
2022/05/14 00:34:08;;;;;;;20.92;3.50;;;11.40;99.90;;;;;;5028589;28;20067;-61
2022/05/14 00:36:36;;;;;;;27.90;3.45;;;11.40;99.90;;;;;;5035625;28;20056;-61
2022/05/14 00:39:04;;;;;;;33.47;4.90;;;11.40;99.90;;;;;;5032687;28;20065;-62
2022/05/14 00:41:32;;;;;;;17.77;3.50;;;11.40;99.90;;;;;;5033359;28;20713;-60
2022/05/14 00:44:00;;;;;;;24.75;4.72;;;11.40;99.90;;;;;;5035226;28;20045;-61
2022/05/14 00:46:46;;;;;;;26.05;5.00;;;11.40;99.90;;;;;;5033980;28;20042;-61
2022/05/14 00:49:17;;;;;;;23.92;3.85;;;11.40;99.90;;;;;;5032823;28;20049;-60
2022/05/14 00:51:46;;;;;;;24.25;4.43;;;11.40;99.90;;;;;;5035095;28;20045;-61
2022/05/14 00:54:18;;;;;;;19.85;3.88;;;11.30;99.90;;;;;;5033340;28;20044;-61
2022/05/14 00:56:52;;;;;;;19.67;3.40;;;11.40;99.90;;;;;;5033992;28;20045;-64
2022/05/14 00:59:22;;;;;;;22.05;4.47;;;11.30;99.90;;;;;;5031333;28;20037;-65
2022/05/14 01:01:50;;;;;;;27.30;4.25;;;11.30;99.90;;;;;;5030010;28;20064;-65
2022/05/14 01:04:20;;;;;;;18.10;3.30;;;11.30;99.90;;;;;;5027878;28;20045;-65
2022/05/14 01:06:56;;;;;;;;;;;11.30;99.90;;;;;;5031136;28;20076;-62
2022/05/14 01:09:25;;;;;;;24.00;4.15;;;11.30;99.90;;;;;;5029811;28;19920;-65
2022/05/14 01:11:54;;;;;;;23.05;4.38;;;11.30;99.90;;;;;;5030687;28;20045;-66
2022/05/14 01:14:22;;;;;;;24.58;5.00;;;11.30;99.90;;;;;;5030366;28;20041;-64
2022/05/14 01:16:54;;;;;;;28.00;4.85;;;11.20;99.90;;;;;;5030279;28;20048;-65
2022/05/14 01:19:25;;;;;;;27.38;4.22;;;11.20;99.90;;;;;;5030202;28;20041;-65
2022/05/14 01:22:34;;;;;;;24.23;5.03;;;11.20;99.90;;;;;;5061486;28;20535;-66
2022/05/14 01:28:18;;;;;;;15.55;3.65;;;11.10;99.90;;;;;;5034466;28;20055;-61
2022/05/14 01:30:56;;;;;;;24.35;3.97;;;11.10;99.90;;;;;;5009259;28;20050;-62
2022/05/14 01:33:25;;;;;;;15.75;3.83;;;11.10;99.90;;;;;;5017777;28;20057;-62
2022/05/14 01:35:54;;;;;;;27.38;4.18;;;11.00;99.90;;;;;;5012240;28;20045;-62
2022/05/14 01:38:25;;;;;;;26.83;4.82;;;11.00;99.90;;;;;;5026971;28;20397;-63
2022/05/14 01:40:52;;;;;;;;;;;11.00;99.90;;;;;;5033778;28;20045;-62
2022/05/14 01:43:21;;;;;;;21.55;3.42;;;11.00;99.90;;;;;;5033769;28;19921;-64
2022/05/14 01:45:49;;;;;;;16.65;3.50;;;11.00;99.90;;;;;;5030643;28;20436;-64
2022/05/14 01:48:17;;;;;;;22.75;4.10;;;10.90;99.90;;;;;;5031953;28;20049;-66
2022/05/14 01:50:45;;;;;;;25.25;3.70;;;10.90;99.90;;;;;;5064422;28;20037;-65
2022/05/14 01:53:12;;;;;;;23.77;3.40;;;10.90;99.90;;;;;;5030036;28;20508;-65
2022/05/14 01:55:40;;;;;;;26.15;3.95;;;10.90;99.90;;;;;;5064259;28;20042;-65
2022/05/14 02:00:59;;;;;;;22.00;4.30;;;10.80;99.90;;;;;;5031251;28;20050;-65
2022/05/14 02:03:26;;;;;;;26.02;4.63;;;10.80;99.90;;;;;;5031378;28;20053;-64
2022/05/14 02:05:54;;;;;;;20.88;3.83;;;10.70;99.90;;;;;;5030574;28;20052;-64
2022/05/14 02:08:22;;;;;;;22.48;4.10;;;10.70;99.90;;;;;;5030906;28;20433;-65
2022/05/14 02:10:50;;;;;;;23.25;5.22;;;10.70;99.90;;;;;;5031455;28;20060;-66
2022/05/14 02:13:19;;;;;;;23.17;5.13;;;10.70;99.90;;;;;;5033216;28;20050;-62
2022/05/14 02:15:47;;;;;;;22.60;4.57;;;10.70;99.90;;;;;;5028607;28;20294;-64
2022/05/14 02:18:16;;;;;;;28.02;5.65;;;10.70;99.90;;;;;;5062940;28;20112;-64
2022/05/14 02:20:44;;;;;;;18.55;5.43;;;10.60;99.90;;;;;;5013476;28;20517;-61
2022/05/14 02:23:12;;;;;;;21.80;3.80;;;10.60;99.90;;;;;;5032193;28;20401;-63
2022/05/14 02:25:41;;;;;;;23.38;4.18;;;10.60;99.90;;;;;;5031383;28;20061;-63
2022/05/14 02:28:09;;;;;;;24.90;4.43;;;10.60;99.90;;;;;;5061494;28;20121;-62
2022/05/14 02:30:37;;;;;;;26.75;5.50;;;10.60;99.90;;;;;;5028650;28;20298;-62
2022/05/14 02:33:05;;;;;;;22.25;4.50;;;10.60;99.90;;;;;;5031154;28;20129;-61
2022/05/14 02:35:33;;;;;;;25.60;4.70;;;10.60;99.90;;;;;;5032280;28;20160;-61
2022/05/14 02:38:01;;;;;;;24.08;4.32;;;10.60;99.90;;;;;;5029705;28;20500;-60
2022/05/14 02:40:29;;;;;;;28.25;5.05;;;10.60;99.90;;;;;;5028367;28;20041;-66
2022/05/14 02:42:57;;;;;;;27.40;5.38;;;10.60;99.90;;;;;;5029523;28;20489;-65
2022/05/14 02:45:25;;;;;;;21.65;4.32;;;10.60;99.90;;;;;;5034450;28;20045;-66
2022/05/14 02:47:52;;;;;;;24.13;4.22;;;10.60;99.90;;;;;;5031718;28;20053;-66
2022/05/14 02:50:21;;;;;;;25.65;5.78;;;10.50;99.90;;;;;;5030231;28;20048;-65
2022/05/14 02:52:50;;;;;;;17.08;3.70;;;10.50;99.90;;;;;;5029377;28;20041;-64
2022/05/14 02:55:17;;;;;;;25.52;4.88;;;10.50;99.90;;;;;;5030733;28;20044;-65
2022/05/14 02:57:45;;;;;;;28.95;4.60;;;10.40;99.90;;;;;;5030113;28;20522;-66
2022/05/14 03:00:16;;;;;;;26.52;4.35;;;10.30;99.90;;;;;;5031408;28;20052;-66
2022/05/14 03:02:45;;;;;;;24.08;5.47;;;10.30;99.90;;;;;;5030912;28;20041;-62
2022/05/14 03:05:16;;;;;;;30.08;6.07;;;10.30;99.90;;;;;;5031779;28;20508;-61
2022/05/14 03:07:44;;;;;;;14.13;3.80;;;10.20;99.90;;;;;;5030389;28;20153;-61
2022/05/14 03:10:13;;;;;;;21.23;5.72;;;10.20;99.90;;;;;;5029070;28;20037;-66
2022/05/14 03:12:41;;;;;;;24.08;4.57;;;10.20;99.90;;;;;;5030197;28;20033;-61
2022/05/14 03:15:10;;;;;;;26.75;4.78;;;10.20;99.90;;;;;;5029938;28;20049;-65
2022/05/14 03:17:39;;;;;;;31.50;5.40;;;10.20;99.90;;;;;;5032484;28;20060;-61
2022/05/14 03:20:10;;;;;;;20.13;5.45;;;10.20;99.90;;;;;;5029097;28;20037;-62
2022/05/14 03:22:40;;;;;;;22.90;4.43;;;10.10;99.90;;;;;;5028784;28;20045;-62
2022/05/14 03:25:09;;;;;;;25.33;5.00;;;10.10;99.90;;;;;;5031612;28;20046;-62
2022/05/14 03:27:38;;;;;;;26.13;5.40;;;10.10;99.90;;;;;;5025150;28;20042;-65
2022/05/14 03:30:06;;;;;;;20.45;5.43;;;10.10;99.90;;;;;;5018799;28;20037;-65
2022/05/14 03:32:34;;;;;;;26.48;5.45;;;10.10;99.90;;;;;;5045385;28;20053;-64
2022/05/14 03:35:05;;;;;;;23.67;5.50;;;10.10;99.90;;;;;;5030972;28;20508;-66
2022/05/14 03:37:33;;;;;;;27.25;4.93;;;10.00;99.90;;;;;;5030771;28;20049;-66
2022/05/14 03:40:02;;;;;;;21.77;4.20;;;10.00;99.90;;;;;;5030816;28;20512;-65
2022/05/14 03:42:31;;;;;;;22.90;4.40;;;10.00;99.90;;;;;;5029579;28;20045;-62
2022/05/14 03:44:59;;;;;;;20.48;5.07;;;10.00;99.90;;;;;;5046392;28;20061;-62
2022/05/14 03:47:28;;;;;;;21.60;5.75;;;10.00;99.90;;;;;;5030152;28;20056;-60
2022/05/14 03:49:57;;;;;;;13.00;4.20;;;9.90;99.90;;;;;;5032426;28;20493;-61
2022/05/14 03:52:24;;;;;;;25.35;6.57;;;9.90;99.90;;;;;;5061331;28;20029;-61
2022/05/14 03:54:52;;;;;;;25.88;4.80;;;9.90;99.90;;;;;;4997397;28;20054;-62
2022/05/14 03:57:20;;;;;;;15.90;4.70;;;9.90;99.90;;;;;;5028498;28;20037;-60
2022/05/14 03:59:48;;;;;;;31.48;5.38;;;9.90;99.90;;;;;;5059098;28;20056;-62
2022/05/14 04:02:16;;;;;;;20.70;4.95;;;9.90;99.90;;;;;;5062138;28;20280;-61
2022/05/14 04:04:44;;;;;;;19.25;4.70;;;9.90;99.90;;;;;;5030758;28;20053;-61
2022/05/14 04:07:16;;;;;;;22.90;5.57;;;9.80;99.90;;;;;;5028820;28;20053;-62
2022/05/14 04:09:44;;;;;;;24.23;5.43;;;9.90;99.90;;;;;;5046050;28;20523;-61
2022/05/14 04:12:11;;;;;;;20.77;4.10;;;9.80;99.90;;;;;;5061790;28;20674;-60
2022/05/14 04:14:39;;;;;;;20.55;5.90;;;9.80;99.90;;;;;;5026919;28;20057;-61
2022/05/14 04:17:07;;;;;;;30.02;5.40;;;9.80;99.90;;;;;;5029749;28;20045;-60
2022/05/14 04:19:35;;;;;;;35.78;5.60;;;9.80;99.90;;;;;;5029850;28;20052;-61
2022/05/14 04:22:03;;;;;;;13.82;4.35;;;9.80;99.90;;;;;;5032875;28;20408;-61
2022/05/14 04:24:32;;;;;;;24.52;5.22;;;9.80;99.90;;;;;;5029078;28;20057;-65
2022/05/14 04:27:00;;;;;;;26.88;7.72;;;9.80;99.90;;;;;;5028268;28;20064;-65
2022/05/14 04:29:28;;;;;;;24.48;5.97;;;9.80;99.90;;;;;;5028289;28;20509;-66
2022/05/14 04:31:55;;;;;;;26.58;5.75;;;9.80;99.90;;;;;;5014211;28;20536;-63
2022/05/14 04:34:23;;;;;;;26.70;5.15;;;9.80;99.90;;;;;;5028040;28;20053;-64
2022/05/14 04:36:51;;;;;;;22.60;6.80;;;9.80;99.90;;;;;;5033614;28;20060;-63
2022/05/14 04:39:18;;;;;;;18.90;4.47;;;9.70;99.90;;;;;;5032442;28;20037;-66
2022/05/14 04:41:46;;;;;;;15.65;4.75;;;9.80;99.90;;;;;;5020910;28;20042;-63
2022/05/14 04:44:14;;;;;;;25.90;5.28;;;9.70;99.90;;;;;;5031644;28;20053;-64
2022/05/14 04:46:42;;;;;;;26.50;5.30;;;9.70;99.90;;;;;;5032756;28;20397;-65
2022/05/14 04:49:09;;;;;;;23.95;4.85;;;9.70;99.90;;;;;;5022609;28;20053;-66
2022/05/14 04:51:37;;;;;;;22.60;4.80;;;9.70;99.90;;;;;;5062769;28;20060;-65
2022/05/14 04:54:04;;;;;;;23.38;4.28;;;9.70;99.90;;;;;;5029694;28;20045;-64
2022/05/14 04:56:32;;;;;;;23.33;5.05;;;9.70;99.90;;;;;;5027821;28;20037;-65
2022/05/14 04:58:59;;;;;;;20.80;5.55;;;9.60;99.90;;;;;;5030142;28;20064;-66
2022/05/14 05:01:27;;;;;;;30.17;5.30;;;9.60;99.90;;;;;;5061823;28;20052;-63
2022/05/14 05:03:55;;;;;;;20.67;6.38;;;9.60;99.90;;;;;;5015358;28;20048;-65
2022/05/14 05:06:24;;;;;;;28.50;6.32;;;9.60;99.90;;;;;;5008257;28;20041;-62
2022/05/14 05:08:52;;;;;;;20.10;5.15;;;9.60;99.90;;;;;;5029004;28;20049;-65
2022/05/14 05:11:23;;;;;;;24.80;6.15;;;9.60;99.90;;;;;;5029201;28;20050;-64
2022/05/14 05:13:51;;;;;;;33.55;5.93;;;9.60;99.90;;;;;;5027552;28;20053;-64
2022/05/14 05:16:19;;;;;;;23.25;5.90;;;9.60;99.90;;;;;;5027254;28;20053;-62
2022/05/14 05:18:46;;;;;;;17.23;5.10;;;9.60;99.90;;;;;;5022040;28;20057;-63
2022/05/14 05:21:14;;;;;;;21.15;5.93;;;9.70;99.90;;;;;;5026280;28;20049;-64
2022/05/14 05:23:43;;;;;;;23.13;5.03;;;9.70;99.90;;;;;;5027818;28;20041;-65
2022/05/14 05:26:10;;;;;;;27.08;5.53;;;9.80;99.90;;;;;;5025262;28;20053;-66
2022/05/14 05:28:38;;;;;;;26.42;5.22;;;9.80;99.90;;;;;;5031857;28;20409;-62
2022/05/14 05:31:07;;;;;;;29.00;5.95;;;9.90;99.90;;;;;;5030664;28;20049;-61
2022/05/14 05:33:34;;;;;;;31.50;6.53;;;10.10;99.90;;;;;;5024587;28;20034;-64
2022/05/14 05:36:02;;;;;;;23.05;4.63;;;10.10;99.90;;;;;;5028891;28;20049;-61
2022/05/14 05:38:31;;;;;;;19.10;4.17;;;10.30;99.90;;;;;;5031079;28;20106;-61
2022/05/14 05:40:58;;;;;;;29.58;5.03;;;10.30;99.90;;;;;;5030642;28;20049;-62
2022/05/14 05:43:26;;;;;;;27.10;4.50;;;10.50;99.90;;;;;;5029951;28;20037;-62
2022/05/14 05:45:56;;;;;;;25.65;4.95;;;10.60;99.90;;;;;;5028378;28;20057;-63
2022/05/14 05:48:24;;;;;;;18.35;4.13;;;10.70;99.90;;;;;;5023851;28;20056;-61
2022/05/14 05:50:53;;;;;;;25.75;4.78;;;10.80;99.90;;;;;;5022715;28;20048;-61
2022/05/14 05:56:46;;;;;;;27.42;4.32;;;10.90;99.90;;;;;;5028753;28;20037;-61
2022/05/14 05:58:55;;;;;;;19.77;4.28;;;11.10;99.90;;;;;;5030561;28;20493;-61
2022/05/14 06:01:23;;;;;;;25.45;4.75;;;11.20;99.90;;;;;;5028520;28;20064;-62
2022/05/14 06:03:51;;;;;;;16.50;4.10;;;11.30;99.90;;;;;;5021376;28;20133;-61
2022/05/14 06:06:19;;;;;;;24.80;5.03;;;11.40;99.90;;;;;;5012709;28;20062;-62
2022/05/14 06:08:48;;;;;;;12.50;2.28;;;11.40;99.90;;;;;;5031293;28;20493;-61
2022/05/14 06:11:17;;;;;;;18.77;4.13;;;11.50;99.90;;;;;;5029893;28;20061;-61
2022/05/14 06:13:45;;;;;;;24.85;3.78;;;11.50;99.90;;;;;;5023592;28;20060;-61
2022/05/14 06:16:14;;;;;;;30.45;4.35;;;11.50;99.90;;;;;;5030611;28;20044;-61
2022/05/14 06:18:42;;;;;;;20.27;4.10;;;11.50;99.90;;;;;;5022865;28;20049;-61
2022/05/14 06:21:10;;;;;;;23.27;4.32;;;11.50;99.90;;;;;;5018082;28;20050;-60
2022/05/14 06:23:38;;;;;;;20.38;3.75;;;11.50;99.90;;;;;;5025362;28;20058;-65
2022/05/14 06:26:06;;;;;;;24.05;4.35;;;11.50;99.90;;;;;;5018172;28;20041;-66
2022/05/14 06:28:34;;;;;;;29.35;5.30;;;11.40;99.90;;;;;;5030565;28;20038;-66
2022/05/14 06:31:02;;;;;;;19.42;3.55;;;11.40;99.90;;;;;;5029069;28;20477;-62
2022/05/14 06:33:30;;;;;;;26.27;4.60;;;11.30;99.90;;;;;;5030865;28;20045;-64
2022/05/14 06:35:58;;;;;;;19.58;3.85;;;11.30;99.90;;;;;;5026786;28;20046;-64
2022/05/14 06:38:28;;;;;;;20.02;4.03;;;11.20;99.90;;;;;;5028989;28;20050;-63
2022/05/14 06:40:56;;;;;;;23.65;3.83;;;11.10;99.90;;;;;;5029170;28;20057;-62
2022/05/14 06:43:23;;;;;;;22.40;4.70;;;11.10;99.90;;;;;;5030695;28;20041;-63
2022/05/14 06:45:51;;;;;;;28.42;4.32;;;11.10;99.90;;;;;;5028709;28;20060;-63
2022/05/14 06:48:19;;;;;;;24.98;5.60;;;11.00;99.90;;;;;;5027854;28;20044;-60
2022/05/14 06:50:50;;;;;;;22.02;4.97;;;11.00;99.90;;;;;;5030479;28;20415;-64
2022/05/14 06:53:20;;;;;;;29.48;4.07;;;11.00;99.90;;;;;;5028304;28;20044;-65
2022/05/14 06:55:50;;;;;;;;;;;11.00;99.90;;;;;;5027619;28;20869;-65
2022/05/14 06:58:19;;;;;;;;;;;11.00;99.90;;;;;;5029373;28;20300;-62
2022/05/14 07:00:47;;;;;;;24.08;3.60;;;11.00;99.90;;;;;;5027228;28;20665;-63
2022/05/14 07:08:48;;;;;;;22.17;4.28;;;11.20;99.90;;;;;;5029151;28;20041;-65
2022/05/14 07:11:17;;;;;;;22.27;4.03;;;11.40;99.90;;;;;;5028792;28;20042;-64
2022/05/14 07:13:45;;;;;;;20.38;5.55;;;11.50;99.90;;;;;;5029030;28;20048;-64
2022/05/14 07:16:15;;;;;;;30.10;4.50;;;11.60;99.90;;;;;;5030384;28;20038;-64
2022/05/14 07:18:43;;;;;;;26.30;5.07;;;11.70;99.90;;;;;;5027084;28;20041;-61
2022/05/14 07:21:11;;;;;;;19.55;3.90;;;11.90;99.90;;;;;;5019075;28;20524;-64
2022/05/14 07:23:38;;;;;;;24.15;4.40;;;12.00;99.90;;;;;;5028845;28;20413;-64
2022/05/14 07:26:08;;;;;;;23.67;4.45;;;12.20;99.90;;;;;;5027577;28;20404;-63
2022/05/14 07:28:37;;;;;;;22.23;4.70;;;12.30;99.90;;;;;;5026351;28;20481;-65
2022/05/14 07:31:05;;;;;;;29.92;4.22;;;12.40;99.90;;;;;;5022478;28;20049;-65
2022/05/14 07:33:32;;;;;;;21.27;4.15;;;12.50;99.90;;;;;;5026833;28;20386;-63
2022/05/14 07:36:07;;;;;;;23.88;4.65;;;12.60;99.90;;;;;;5025606;28;20505;-61
2022/05/14 07:38:36;;;;;;;14.18;3.60;;;12.60;99.90;;;;;;5020896;28;20049;-66
2022/05/14 07:41:04;;;;;;;20.73;4.45;;;12.70;99.90;;;;;;5026952;28;20033;-65
2022/05/14 07:43:36;;;;;;;29.67;4.60;;;12.80;99.90;;;;;;5026959;28;20062;-65
2022/05/14 07:46:08;;;;;;;29.05;4.35;;;12.90;99.90;;;;;;5024774;28;20116;-65
2022/05/14 07:48:39;;;;;;;22.50;5.40;;;13.00;99.90;;;;;;5024491;28;20053;-65
2022/05/14 07:51:09;;;;;;;21.08;3.90;;;13.00;99.90;;;;;;5019856;28;20052;-64
2022/05/14 07:53:38;;;;;;;28.17;4.70;;;13.10;99.90;;;;;;5026526;28;20049;-66
2022/05/14 07:56:08;;;;;;;32.33;5.25;;;13.10;99.90;;;;;;5018227;28;20041;-65
2022/05/14 07:58:38;;;;;;;15.88;3.63;;;13.10;99.90;;;;;;5023009;28;20056;-64
2022/05/14 08:01:06;;;;;;;29.20;6.25;;;13.20;99.90;;;;;;5027602;28;20049;-66
2022/05/14 08:03:34;;;;;;;24.33;5.22;;;13.20;99.90;;;;;;5025477;28;20401;-66
2022/05/14 08:06:03;;;;;;;18.05;4.18;;;13.20;99.90;;;;;;5016394;28;20033;-59
2022/05/14 08:08:31;;;;;;;23.92;4.85;;;13.30;99.90;;;;;;5027345;28;20041;-61
2022/05/14 08:10:59;;;;;;;27.40;5.13;;;13.40;99.90;;;;;;5033707;28;20052;-61
2022/05/14 08:13:26;;;;;;;17.52;3.80;;;13.50;99.90;;;;;;5030270;28;20045;-60
2022/05/14 08:15:54;;;;;;;23.58;5.18;;;13.60;99.90;;;;;;5031454;28;20042;-60
2022/05/14 08:18:22;;;;;;;18.40;4.32;;;13.70;99.90;;;;;;5028247;28;20056;-61
2022/05/14 08:20:51;;;;;;;21.05;4.03;;;13.90;99.90;;;;;;5029053;28;20064;-61
2022/05/14 08:26:08;;;;;;;18.77;4.47;;;14.10;99.90;;;;;;5029586;28;20055;-66
2022/05/14 08:28:36;;;;;;;20.20;4.10;;;14.20;99.90;;;;;;5032161;28;20045;-60
2022/05/14 08:31:03;;;;;;;23.05;4.57;;;14.30;99.90;;;;;;5036245;28;20050;-61
2022/05/14 08:33:31;;;;;;;25.70;4.53;;;14.40;99.90;;;;;;5029596;28;20501;-63
2022/05/14 08:36:00;;;;;;;21.83;4.57;;;14.40;99.90;;;;;;5028447;28;20067;-64
2022/05/14 08:38:27;;;;;;;22.60;4.45;;;14.50;99.90;;;;;;5028704;28;20053;-61
2022/05/14 08:40:59;;;;;;;24.15;4.70;;;14.60;99.90;;;;;;5028499;28;20045;-61
2022/05/14 08:43:51;;;;;;;17.85;4.75;;;14.70;99.90;;;;;;5022211;28;20422;-60
2022/05/14 08:46:23;;;;;;;24.90;4.53;;;14.80;99.90;;;;;;5027679;28;20045;-63
2022/05/14 08:48:56;;;;;;;18.77;4.85;;;14.80;99.90;;;;;;5028364;28;20504;-61
2022/05/14 08:51:30;;;;;;;25.10;4.55;;;14.90;99.90;;;;;;5023669;28;20048;-60
2022/05/14 08:53:58;;;;;;;21.05;4.20;;;14.90;99.90;;;;;;5025280;28;20053;-61
2022/05/14 08:56:38;;;;;;;25.52;4.15;;;15.00;99.90;;;;;;5010075;28;20399;-65
2022/05/14 08:59:55;;;;;;;20.48;3.92;;;15.00;99.90;;;;;;5023803;28;20049;-66
2022/05/14 09:02:36;;;;;;;28.30;5.65;;;15.10;99.90;;;;;;5003803;28;20068;-65
2022/05/14 09:05:11;;;;;;;20.42;4.60;;;15.10;99.90;;;;;;5007213;28;20053;-65
2022/05/14 09:07:39;;;;;;;30.40;4.60;;;15.20;99.90;;;;;;5013956;28;20125;-64
2022/05/14 09:10:18;;;;;;;24.13;4.47;;;15.20;99.90;;;;;;5013400;28;20389;-65
2022/05/14 09:13:14;;;;;;;23.38;4.60;;;15.30;99.90;;;;;;5062472;28;20041;-66
2022/05/14 09:15:55;;;;;;;21.47;4.67;;;15.40;99.90;;;;;;5032393;28;20049;-64
2022/05/14 09:18:32;;;;;;;22.88;4.68;;;15.60;99.90;;;;;;5032073;28;20084;-62
2022/05/14 09:21:06;;;;;;;24.45;4.45;;;15.80;99.90;;;;;;5031497;28;20065;-65
2022/05/14 09:23:46;;;;;;;22.55;4.88;;;16.00;99.90;;;;;;5027170;28;20066;-65
2022/05/14 09:26:17;;;;;;;;;;;16.10;99.90;;;;;;5021074;28;20064;-66
2022/05/14 09:28:56;;;;;;;19.15;4.18;;;16.30;99.90;;;;;;5032101;28;19921;-65
2022/05/14 09:31:39;;;;;;;23.08;4.07;;;16.40;99.90;;;;;;5031702;28;20049;-65
2022/05/14 09:34:13;;;;;;;25.75;4.72;;;16.50;99.90;;;;;;5033308;28;20061;-66
2022/05/14 09:36:42;;;;;;;24.90;5.10;;;16.70;99.90;;;;;;5031942;28;20049;-62
2022/05/14 09:39:17;;;;;;;17.10;4.03;;;16.90;99.90;;;;;;5030848;28;20445;-65
2022/05/14 09:41:50;;;;;;;14.38;3.60;;;17.00;99.90;;;;;;5022780;28;20065;-64
2022/05/14 09:44:21;;;;;;;22.52;4.43;;;17.20;99.90;;;;;;5022327;28;20060;-66
2022/05/14 09:46:50;;;;;;;25.25;4.38;;;17.30;99.90;;;;;;5012411;28;20041;-67
2022/05/14 09:49:25;;;;;;;21.85;4.43;;;17.50;99.90;;;;;;5028700;28;20397;-66
2022/05/14 09:52:05;;;;;;;28.85;4.97;;;17.60;99.90;;;;;;5031782;28;20393;-66
2022/05/14 09:54:48;;;;;;;22.90;4.60;;;17.70;99.90;;;;;;5031903;28;20045;-66
2022/05/14 09:57:43;;;;;;;22.00;4.65;;;17.70;99.90;;;;;;5025136;28;20048;-62
2022/05/14 10:00:36;;;;;;;21.02;4.00;;;17.80;99.90;;;;;;5028527;28;20037;-67
2022/05/14 10:03:21;;;;;;;25.10;4.57;;;18.00;99.90;;;;;;5032481;28;20056;-66
2022/05/14 10:06:15;;;;;;;24.23;4.10;;;18.10;99.90;;;;;;5034107;28;20048;-66
2022/05/14 10:09:09;;;;;;;17.38;3.35;;;18.20;99.90;;;;;;5051194;28;20029;-67
2022/05/14 10:11:44;;;;;;;19.17;4.20;;;18.30;99.90;;;;;;5022018;28;20061;-62
2022/05/14 10:14:40;;;;;;;20.58;4.03;;;18.30;99.90;;;;;;5030828;28;20493;-63
2022/05/14 10:17:26;;;;;;;20.10;4.15;;;18.40;99.90;;;;;;5019480;28;20049;-61
2022/05/14 10:20:31;;;;;;;28.58;4.65;;;18.50;99.90;;;;;;5032289;28;20424;-62
2022/05/14 10:26:46;;;;;;;19.80;3.70;;;18.70;99.90;;;;;;5020951;28;20045;-65
2022/05/14 10:29:20;;;;;;;14.73;3.53;;;18.80;99.90;;;;;;5034840;28;20033;-64
2022/05/14 10:32:09;;;;;;;18.20;4.15;;;19.00;99.90;;;;;;5028824;28;20434;-67
2022/05/14 10:34:59;;;;;;;18.75;3.55;;;19.00;99.90;;;;;;5029344;28;20037;-65
2022/05/14 10:37:32;;;;;;;20.55;4.00;;;19.10;99.90;;;;;;5032832;28;20061;-64
2022/05/14 10:40:26;;;;;;;17.13;4.53;;;19.00;99.90;;;;;;5022781;28;20477;-65
2022/05/14 10:42:53;;;;;;;20.25;3.58;;;19.00;99.90;;;;;;5024108;28;20041;-67
2022/05/14 10:45:34;;;;;;;22.67;3.60;;;19.00;99.90;;;;;;5029731;28;20052;-63
2022/05/14 10:48:42;;;;;;;16.73;3.60;;;19.00;99.90;;;;;;5037923;28;20053;-64
2022/05/14 10:51:18;;;;;;;19.02;3.92;;;19.00;99.90;;;;;;5033149;28;20485;-66
2022/05/14 10:53:46;;;;;;;19.20;3.60;;;19.10;99.90;;;;;;5031630;28;20045;-65
2022/05/14 10:56:22;;;;;;;28.75;3.80;;;19.10;99.90;;;;;;5032251;28;20397;-67
2022/05/14 10:58:58;;;;;;;19.40;3.42;;;19.20;99.90;;;;;;5026512;28;20037;-63
2022/05/14 11:01:55;;;;;;;16.63;3.83;;;19.30;99.90;;;;;;5020915;28;20064;-66
2022/05/14 11:04:29;;;;;;;25.45;4.53;;;19.50;99.90;;;;;;5027815;28;20056;-62
2022/05/14 11:07:08;;;;;;;19.50;3.88;;;19.60;99.90;;;;;;5027137;28;20049;-61
2022/05/14 11:09:47;;;;;;;20.37;3.93;;;19.80;99.90;;;;;;5023439;28;20064;-61
2022/05/14 11:12:22;;;;;;;19.00;3.60;;;19.90;99.90;;;;;;5033904;28;20058;-62
2022/05/14 11:14:55;;;;;;;20.30;4.07;;;20.00;99.90;;;;;;5042986;28;20041;-61
2022/05/14 11:17:34;;;;;;;14.32;3.45;;;20.20;99.90;;;;;;5046941;28;20496;-62
2022/05/14 11:20:02;;;;;;;19.08;3.40;;;20.30;99.90;;;;;;5032856;28;20492;-63
2022/05/14 11:22:43;;;;;;;25.15;3.30;;;20.40;99.30;;;;;;5029872;28;20044;-63
2022/05/14 11:25:11;;;;;;;21.05;4.38;;;20.50;98.30;;;;;;5018422;28;20041;-64
2022/05/14 11:27:41;;;;;;;15.70;3.78;;;20.50;98.70;;;;;;5020957;28;20056;-66
2022/05/14 11:30:11;;;;;;;19.48;3.50;;;20.60;98.30;;;;;;5026935;28;20046;-63
2022/05/14 11:32:48;;;;;;;23.45;3.78;;;20.60;98.60;;;;;;5018885;28;20053;-62
2022/05/14 11:35:17;;;;;;;13.07;3.00;;;20.80;98.60;;;;;;5023056;28;20041;-62
2022/05/14 11:37:48;;;;;;;14.50;2.95;;;20.90;98.10;;;;;;5016152;28;20061;-62
2022/05/14 11:40:19;;;;;;;18.45;3.30;;;21.10;97.20;;;;;;5017303;28;20029;-66
2022/05/14 11:43:27;;;;;;;16.23;3.08;;;21.20;96.60;;;;;;5027004;28;20060;-67
2022/05/14 11:46:20;;;;;;;11.27;3.65;;;21.30;95.60;;;;;;5031623;28;20057;-63
2022/05/14 11:48:54;;;;;;;17.15;3.03;;;21.40;94.90;;;;;;5036200;28;20042;-67
2022/05/14 11:51:34;;;;;;;11.80;2.83;;;21.60;94.20;;;;;;5027812;28;20077;-67
2022/05/14 11:54:07;;;;;;;12.60;2.85;;;21.80;93.00;;;;;;5031445;28;20369;-65
2022/05/14 11:57:25;;;;;;;16.23;2.92;;;22.10;93.20;;;;;;5031149;28;20049;-61
2022/05/14 11:59:57;;;;;;;12.50;2.92;;;22.50;92.90;;;;;;5025070;28;20053;-65
2022/05/14 12:02:33;;;;;;;13.77;3.03;;;22.80;92.00;;;;;;5027962;28;20409;-66
2022/05/14 12:05:04;;;;;;;19.92;3.38;;;23.10;90.40;;;;;;5027191;28;20046;-64
2022/05/14 12:08:03;;;;;;;13.00;2.53;;;23.30;85.10;;;;;;5032392;28;20046;-65
2022/05/14 12:10:57;;;;;;;9.95;2.45;;;23.60;84.20;;;;;;5029777;28;20045;-65
2022/05/14 12:14:01;;;;;;;13.93;2.10;;;23.90;80.00;;;;;;5021797;28;20421;-67
2022/05/14 12:16:41;;;;;;;10.82;2.33;;;24.20;77.40;;;;;;5028609;28;20485;-67
2022/05/14 12:19:18;;;;;;;7.70;2.63;;;24.50;75.40;;;;;;5012431;28;20054;-67
2022/05/14 12:21:57;;;;;;;12.63;2.75;;;24.80;74.20;;;;;;5019656;28;20440;-66
2022/05/14 12:24:38;;;;;;;15.53;3.33;;;25.00;73.80;;;;;;5027166;28;20037;-67
2022/05/14 12:27:17;;;;;;;10.55;2.92;;;25.30;73.50;;;;;;5029130;28;20041;-68
2022/05/14 12:29:59;;;;;;;12.00;2.97;;;25.30;73.00;;;;;;5028669;28;20033;-67
2022/05/14 12:35:22;;;;;;;8.48;2.75;;;25.60;70.60;;;;;;5019872;28;20430;-68
2022/05/14 12:37:54;;;;;;;15.98;3.50;;;25.70;70.20;;;;;;5029938;28;20037;-68
2022/05/14 12:40:30;;;;;;;9.27;2.33;;;26.00;68.40;;;;;;5038225;28;20041;-69
2022/05/14 12:42:59;;;;;;;12.68;2.65;;;26.00;66.30;;;;;;5029515;28;20477;-63
2022/05/14 12:45:35;;;;;;;15.55;2.20;;;26.30;65.30;;;;;;5024165;28;20057;-62
2022/05/14 12:48:05;;;;;;;12.18;3.20;;;26.40;64.60;;;;;;5016470;28;20054;-67
2022/05/14 12:50:49;;;;;;;11.65;2.42;;;26.50;65.40;;;;;;5027702;28;20053;-65
2022/05/14 12:53:16;;;;;;;;;;;26.50;64.80;;;;;;5024126;28;20057;-62
2022/05/14 12:55:49;;;;;;;14.18;3.20;;;26.30;63.90;;;;;;5030288;28;20368;-63
2022/05/14 12:58:18;;;;;;;11.80;3.05;;;26.10;64.20;;;;;;5032703;28;20050;-63
2022/05/14 13:00:52;;;;;;;11.88;2.75;;;25.80;65.40;;;;;;5029429;28;20050;-64
2022/05/14 13:03:25;;;;;;;13.15;2.42;;;25.80;66.50;;;;;;5027180;28;20038;-67
2022/05/14 13:06:01;;;;;;;11.75;2.60;;;25.90;66.70;;;;;;5027482;28;20045;-67
2022/05/14 13:08:30;;;;;;;16.17;2.80;;;26.10;65.60;;;;;;5027457;28;20037;-63
2022/05/14 13:11:01;;;;;;;12.02;2.60;;;26.30;65.30;;;;;;5024014;28;20046;-68
2022/05/14 13:13:39;;;;;;;8.63;2.10;;;26.60;64.00;;;;;;5021078;28;20547;-68
2022/05/14 13:16:24;;;;;;;8.65;2.22;;;26.80;62.70;;;;;;5035784;28;20033;-66
2022/05/14 13:18:55;;;;;;;14.18;2.70;;;27.10;60.20;;;;;;5020371;28;20033;-65
2022/05/14 13:21:24;;;;;;;8.52;2.40;;;27.00;59.70;;;;;;5017199;28;20046;-66
2022/05/14 13:23:59;;;;;;;12.70;3.05;;;27.20;60.00;;;;;;5036973;28;20060;-67
2022/05/14 13:26:30;;;;;;;11.45;2.90;;;27.40;60.50;;;;;;5028096;28;20057;-68
2022/05/14 13:29:17;;;;;;;11.73;2.65;;;27.60;59.90;;;;;;5032152;28;20049;-67
2022/05/14 13:31:46;;;;;;;7.45;1.98;;;27.90;58.50;;;;;;5033899;28;20508;-69
2022/05/14 13:37:16;;;;;;;11.75;2.78;;;28.00;58.50;;;;;;5041607;28;20481;-64